Terminal Aerodrome Forecast
Issued by NWS Wilmington, NC

Home | Current Version | Previous Version | Text Only | Print | Product List | Glossary On
Versions: 1 2 3 4 5 6 7 8 9 10 11 12 13 14 15 16 17 18
000
FTUS42 KILM 281723
TAFILM
TAF
KILM 281723Z 2818/2918 13008KT P6SM SCT030 SCT250
     FM290100 VRB04KT P6SM FEW025
     FM291300 08006KT P6SM SCT015 SCT060=

USA.gov is the U.S. government's official web portal to all federal, state and local government web resources and services.